Flight Track Log - Related Links

Times and Time Zones

All times are in EDT time to prevent confusion due to time zone crossing. See the AAL2345 flight status page for this flight to view local times or setup timezone preferences in your user account.

Time Position Orientation Groundspeed Altitude Reporting Facility
EDT Latitude Longitude Course Direction KTS MPH feet Rate Location/Type
Sun 06:52:30 PM 41.9167 -87.9500 207° Southwest 224 258 2,800  Level Chicago TRACON
Sun 06:53:30 PM 41.8500 -88.0000 209° Southwest 267 307 5,000 1,435 Climbing Chicago TRACON
Sun 06:54:02 PM 41.8269 -88.0050 189° South 256 295 5,000 1,723 Level Chicago Center
Sun 06:55:00 PM 41.6698 -88.2749 197° South  Level Estimated
Sun 06:55:04 PM 41.7381 -88.0267 190° South 274 315 7,700  Level Chicago Center
Sun 06:56:00 PM 41.5732 -88.2238 158° South  Level FlightAware Approximate
Sun 06:56:06 PM 41.6622 -88.0631 200° South 289 333 10,400  Level Chicago Center
Sun 06:57:00 PM 41.4942 -88.3178 207° Southwest  Level Estimated
Sun 06:57:08 PM 41.5836 -88.0986 199° South 301 346 12,900  Level Chicago Center
Sun 06:58:09 PM 41.4986 -88.1383 199° South 328 377 14,500 1,951 Climbing Chicago Center
Sun 06:59:11 PM 41.3892 -88.1883 199° South 360 414 16,900 2,081 Climbing Chicago Center
Sun 07:00:13 PM 41.2922 -88.2322 199° South 374 430 18,800 1,694 Climbing Chicago Center
Sun 07:01:15 PM 41.1933 -88.2753 198° South 378 435 20,400 1,306 Climbing Chicago Center
Sun 07:02:17 PM 41.0869 -88.3225 198° South 393 452 21,500 1,452 Climbing Chicago Center
Sun 07:03:19 PM 40.9514 -88.3836 199° South 423 487 23,400 1,548 Climbing Chicago Center
Sun 07:04:21 PM 40.8358 -88.4364 199° South 436 502 24,700 1,355 Climbing Chicago Center
Sun 07:05:23 PM 40.7167 -88.4897 199° South 451 519 26,200 1,355 Climbing Chicago Center
Sun 07:06:25 PM 40.5972 -88.5419 198° South 455 524 27,500 1,403 Climbing Chicago Center
Sun 07:07:27 PM 40.4806 -88.5944 199° South 448 516 29,100 1,210 Climbing Chicago Center
Sun 07:08:29 PM 40.3753 -88.6892 214° Southwest 431 496 30,000 435 Climbing Chicago Center
Sun 07:09:31 PM 40.2889 -88.7950 223° Southwest 424 488 30,000  Level Chicago Center
Sun 07:10:33 PM 40.2006 -88.9011 223° Southwest 427 491 30,000  Level Chicago Center
Sun 07:11:35 PM 40.0953 -89.0286 223° Southwest 427 491 30,000  Level Chicago Center
Sun 07:12:37 PM 40.0064 -89.1331 222° Southwest 428 493 30,000  Level Chicago Center
Sun 07:13:29 PM 39.9347 -89.2194 223° Southwest 429 494 30,000  Level Kansas City Center
Sun 07:14:31 PM 39.8475 -89.3244 223° Southwest 428 493 30,000  Level Kansas City Center
Sun 07:15:32 PM 39.7592 -89.4300 223° Southwest 429 494 30,000  Level Kansas City Center
Sun 07:16:34 PM 39.6678 -89.5375 222° Southwest 428 493 30,000  Level Kansas City Center
Sun 07:17:36 PM 39.5806 -89.6422 223° Southwest 428 493 30,000  Level Kansas City Center
Sun 07:18:38 PM 39.4919 -89.7450 222° Southwest 431 496 30,000  Level Kansas City Center
Sun 07:19:40 PM 39.3861 -89.8725 223° Southwest 433 498 30,000  Level Kansas City Center
Sun 07:20:41 PM 39.2972 -89.9764 222° Southwest 433 498 30,000  Level Kansas City Center
Sun 07:21:43 PM 39.2083 -90.0800 222° Southwest 433 498 30,000  Level Kansas City Center
Sun 07:22:45 PM 39.1194 -90.1839 222° Southwest 433 498 30,000  Level Kansas City Center
Sun 07:23:47 PM 39.0300 -90.2878 222° Southwest 434 499 30,000  Level Kansas City Center
Sun 07:24:49 PM 38.9222 -90.4114 222° Southwest 435 501 30,000  Level Kansas City Center
Sun 07:25:50 PM 38.8325 -90.5153 222° Southwest 434 499 30,000  Level Kansas City Center
Sun 07:26:52 PM 38.7539 -90.6364 230° Southwest 438 504 30,000  Level Kansas City Center
Sun 07:27:54 PM 38.6800 -90.7467 229° Southwest 434 499 30,000  Level Kansas City Center
Sun 07:28:56 PM 38.6014 -90.8608 229° Southwest 432 497 30,000  Level Kansas City Center
Sun 07:29:57 PM 38.5069 -90.9992 229° Southwest 433 498 30,000  Level Kansas City Center
Sun 07:30:59 PM 38.4264 -91.1147 228° Southwest 436 502 30,000  Level Kansas City Center
Sun 07:32:01 PM 38.3475 -91.2278 228° Southwest 432 497 30,000  Level Kansas City Center
Sun 07:33:03 PM 38.2672 -91.3433 229° Southwest 436 502 30,000  Level Kansas City Center
Sun 07:34:04 PM 38.1772 -91.4706 228° Southwest 435 501 30,000  Level Kansas City Center
Sun 07:35:06 PM 38.0964 -91.5864 228° Southwest 435 501 30,000  Level Kansas City Center
Sun 07:36:08 PM 38.0161 -91.7017 229° Southwest 434 499 30,000  Level Kansas City Center
Sun 07:37:10 PM 37.9344 -91.8164 228° Southwest 434 499 30,000  Level Kansas City Center
Sun 07:38:12 PM 37.8531 -91.9319 228° Southwest 435 501 30,000  Level Kansas City Center
Sun 07:39:13 PM 37.7714 -92.0472 228° Southwest 434 499 30,000  Level Kansas City Center
Sun 07:40:15 PM 37.6878 -92.1647 228° Southwest 435 501 30,000  Level Kansas City Center
Sun 07:41:17 PM 37.6072 -92.2778 228° Southwest 436 502 30,000  Level Kansas City Center
Sun 07:42:19 PM 37.5247 -92.3917 228° Southwest 434 499 30,000  Level Kansas City Center
Sun 07:43:21 PM 37.4272 -92.5292 228° Southwest 435 501 30,000  Level Kansas City Center
Sun 07:44:23 PM 37.3428 -92.6433 227° Southwest 440 506 30,000  Level Kansas City Center
Sun 07:45:24 PM 37.2592 -92.7536 226° Southwest 437 503 30,000  Level Kansas City Center
Sun 07:46:27 PM 37.1542 -92.8397 213° Southwest 442 509 30,000  Level Kansas City Center
Sun 07:47:28 PM 37.0503 -92.9250 213° Southwest 443 510 30,000  Level Kansas City Center
Sun 07:48:30 PM 36.9456 -93.0125 214° Southwest 447 514 30,000  Level Kansas City Center
Sun 07:49:32 PM 36.8414 -93.0967 213° Southwest 446 513 30,000  Level Kansas City Center
Sun 07:50:33 PM 36.7344 -93.1858 214° Southwest 451 519 30,000  Level Kansas City Center
Sun 07:51:35 PM 36.6289 -93.2756 214° Southwest 457 526 30,000  Level Kansas City Center
Sun 07:52:37 PM 36.5031 -93.3781 213° Southwest 456 525 30,000  Level Kansas City Center
Sun 07:53:39 PM 36.3994 -93.4597 212° Southwest 452 520 30,000  Level Kansas City Center
Sun 07:54:09 PM 36.3547 -93.4981 215° Southwest 451 519 30,000  Level Memphis Center
Sun 07:55:09 PM 36.2503 -93.5842 214° Southwest 451 519 30,000  Level Memphis Center
Sun 07:56:09 PM 36.1481 -93.6675 213° Southwest 451 519 30,000  Level Memphis Center
Sun 07:57:08 PM 36.0436 -93.7533 214° Southwest 451 519 30,000  Level Memphis Center
Sun 07:58:09 PM 35.9392 -93.8336 212° Southwest 446 513 30,000  Level Memphis Center
Sun 07:59:09 PM 35.8325 -93.9186 213° Southwest 446 513 30,000  Level Memphis Center
Sun 08:00:09 PM 35.7300 -94.0036 214° Southwest 446 513 30,000  Level Memphis Center
Sun 08:01:09 PM 35.6256 -94.0833 212° Southwest 446 513 30,000 -400 Level Memphis Center
Sun 08:02:09 PM 35.5228 -94.1656 213° Southwest 446 513 29,200 -850 Descending Memphis Center
Sun 08:03:09 PM 35.4181 -94.2475 213° Southwest 446 513 28,300 -600 Descending Memphis Center
Sun 08:04:09 PM 35.3192 -94.3444 219° Southwest 451 519 28,000 -151 Descending Memphis Center
Sun 08:05:08 PM 35.2242 -94.4467 221° Southwest 451 519 28,000  Level Memphis Center
Sun 08:06:09 PM 35.1331 -94.5489 223° Southwest 451 519 28,000  Level Memphis Center
Sun 08:08:05 PM 34.9544 -94.7486 223° Southwest 438 504 28,000  Level Fort Worth Center
Sun 08:09:05 PM 34.8628 -94.8450 221° Southwest 444 511 28,000  Level Fort Worth Center
Sun 08:10:05 PM 34.7689 -94.9464 222° Southwest 454 522 28,000  Level Fort Worth Center
Sun 08:11:05 PM 34.6789 -95.0400 221° Southwest 449 517 28,000  Level Fort Worth Center
Sun 08:12:05 PM 34.5828 -95.1461 222° Southwest 449 517 28,000  Level Fort Worth Center
Sun 08:13:05 PM 34.4906 -95.2442 221° Southwest 449 517 28,000 -300 Level Fort Worth Center
Sun 08:14:05 PM 34.3942 -95.3422 220° Southwest 455 524 27,400 -1,000 Descending Fort Worth Center
Sun 08:15:05 PM 34.2997 -95.4425 221° Southwest 455 524 26,000 -1,450 Descending Fort Worth Center
Sun 08:16:05 PM 34.2094 -95.5400 222° Southwest 449 517 24,500 -1,000 Descending Fort Worth Center
Sun 08:17:05 PM 34.1128 -95.6375 220° Southwest 449 517 24,000 -250 Descending Fort Worth Center
Sun 08:18:05 PM 34.0142 -95.7422 221° Southwest 449 517 24,000  Level Fort Worth Center
Sun 08:19:05 PM 33.9214 -95.8392 221° Southwest 449 517 24,000  Level Fort Worth Center
Sun 08:20:05 PM 33.8286 -95.9383 222° Southwest 454 522 24,000 -600 Level Fort Worth Center
Sun 08:21:05 PM 33.7358 -96.0322 220° Southwest 454 522 22,800 -1,800 Descending Fort Worth Center
Sun 08:22:05 PM 33.6431 -96.1261 220° Southwest 454 522 20,400 -2,300 Descending Fort Worth Center
Sun 08:23:05 PM 33.5542 -96.2194 221° Southwest 444 511 18,200 -2,000 Descending Fort Worth Center
Sun 08:24:05 PM 33.4736 -96.3078 222° Southwest 428 493 16,400 -1,500 Descending Fort Worth Center
Sun 08:25:05 PM 33.4014 -96.3983 226° Southwest 390 449 15,200 -1,450 Descending Fort Worth Center
Sun 08:26:05 PM 33.3331 -96.4811 225° Southwest 370 426 13,500 -1,700 Descending Fort Worth Center
Sun 08:27:05 PM 33.2667 -96.5614 225° Southwest 359 413 11,800 -1,250 Descending Fort Worth Center
Sun 08:28:05 PM 33.2047 -96.6364 225° Southwest 338 389 11,000 -400 Descending Fort Worth Center
Sun 08:29:05 PM 33.1467 -96.7064 225° Southwest 320 368 11,000  Level Fort Worth Center
Sun 08:29:57 PM 33.1000 -96.7667 227° Southwest 299 344 11,000  Level Dallas / Fort Worth TRACON
Sun 08:31:03 PM 33.0333 -96.8333 220° Southwest 293 337 11,000  Level Dallas / Fort Worth TRACON
Sun 08:32:03 PM 32.9667 -96.9000 220° Southwest 248 285 11,000 -694 Level Dallas / Fort Worth TRACON
Sun 08:33:04 PM 32.9000 -96.9000 180° South 274 315 9,600 -1,368 Descending Dallas / Fort Worth TRACON
Sun 08:33:57 PM 32.8333 -96.9000 180° South 268 308 8,400 -1,381 Descending Dallas / Fort Worth TRACON
Sun 08:34:57 PM 32.7667 -96.9167 192° South 264 304 7,000 -1,350 Descending Dallas / Fort Worth TRACON
Sun 08:35:57 PM 32.7000 -96.9333 192° South 257 296 5,700 -1,571 Descending Dallas / Fort Worth TRACON
Sun 08:37:03 PM 32.7167 -97.0000 287° West 214 246 3,700 -1,818 Descending Dallas / Fort Worth TRACON

Login

Don't have an account? Register now (free) for customized features, flight alerts, and more!